Time;durP1;ratioP1;P1;durP2;ratioP2;P2;SDS_P1;SDS_P2;PMS_P1;PMS_P2;Temp;Humidity;BMP_temperature;BMP_pressure;BME280_temperature;BME280_humidity;BME280_pressure;Samples;Min_cycle;Max_cycle;Signal;HPM_P1;HPM_P2
2022/10/20 00:02:17;;;;;;;;;;;;;;;6.54;68.01;101785.34;5045264;28;20293;-29
2022/10/20 00:04:42;;;;;;;;;;;;;;;6.53;68.08;101780.97;5059033;28;20302;-27
2022/10/20 00:07:07;;;;;;;;;;;;;;;6.50;68.18;101780.88;5055813;28;20381;-28
2022/10/20 00:09:32;;;;;;;;;;;;;;;6.50;68.04;101780.88;5058586;28;20369;-28
2022/10/20 00:11:58;;;;;;;5.57;3.87;;;;;;;6.47;68.23;101772.94;5058000;28;19935;-28
2022/10/20 00:14:23;;;;;;;5.70;4.00;;;;;;;6.46;68.18;101767.66;5047508;28;20064;-28
2022/10/20 00:16:48;;;;;;;;;;;;;;;6.44;68.09;101774.59;5068172;28;20397;-28
2022/10/20 00:19:13;;;;;;;;;;;;;;;6.39;68.06;101778.00;5062007;28;19916;-30
2022/10/20 00:21:39;;;;;;;;;;;;;;;6.39;68.28;101777.09;5062652;28;19965;-28
2022/10/20 00:24:04;;;;;;;;;;;;;;;6.38;67.94;101775.34;5062941;28;20372;-28
2022/10/20 00:26:29;;;;;;;;;;;;;;;6.35;68.17;101765.66;5044050;28;19913;-28
2022/10/20 00:28:55;;;;;;;;;;;;;;;6.34;68.40;101750.75;5021835;28;19913;-28
2022/10/20 00:31:21;;;;;;;;;;;;;;;6.33;68.32;101751.63;5051591;28;19935;-29
2022/10/20 00:33:46;;;;;;;;;;;;;;;6.32;68.24;101752.47;5067569;28;20394;-28
2022/10/20 00:36:12;;;;;;;;;;;;;;;6.29;68.29;101747.16;5063645;28;19912;-28
2022/10/20 00:38:37;;;;;;;;;;;;;;;6.28;67.90;101741.00;5043049;28;19913;-27
2022/10/20 00:41:02;;;;;;;;;;;;;;;6.25;67.99;101738.34;5060162;28;19916;-28
2022/10/20 00:43:40;;;;;;;;;;;;;;;6.22;67.82;101737.34;5065490;28;20362;-28
2022/10/20 00:46:05;;;;;;;;;;;;;;;6.21;68.41;101748.69;5060390;28;19916;-28
2022/10/20 00:48:30;;;;;;;;;;;;;;;6.18;67.89;101739.03;5049198;28;20323;-28
2022/10/20 00:50:56;;;;;;;;;;;;;;;6.19;67.77;101739.88;5052885;28;20427;-28
2022/10/20 00:53:21;;;;;;;;;;;;;;;6.13;68.09;101728.41;5050065;28;20362;-28
2022/10/20 00:55:47;;;;;;;;;;;;;;;6.12;68.42;101733.59;5057585;28;20347;-28
2022/10/20 00:58:13;;;;;;;;;;;;;;;6.12;68.15;101718.78;5055776;28;19931;-28
2022/10/20 01:00:38;;;;;;;;;;;;;;;6.12;67.95;101717.91;5057121;28;20370;-27
2022/10/20 01:03:03;;;;;;;;;;;;;;;6.09;68.14;101716.09;5065221;28;19920;-28
2022/10/20 01:05:29;;;;;;;;;;;;;;;6.09;68.17;101715.19;5059489;28;20278;-30
2022/10/20 01:07:54;;;;;;;;;;;;;;;6.06;67.98;101712.50;5065732;28;19912;-29
2022/10/20 01:10:19;;;;;;;;;;;;;;;6.06;67.98;101712.50;5039123;28;19917;-29
2022/10/20 01:12:44;;;;;;;;;;;;;;;6.03;68.08;101716.81;5035807;28;19916;-28
2022/10/20 01:15:19;;;;;;;;;;;;;;;6.02;68.21;101712.41;5054218;28;19909;-29
2022/10/20 01:17:44;;;;;;;;;;;;;;;6.00;68.37;101708.84;5041291;28;19920;-28
2022/10/20 01:20:09;;;;;;;;;;;;;;;6.00;68.08;101702.72;5061980;28;20003;-28
2022/10/20 01:22:50;;;;;;;;;;;;;;;5.96;68.18;101704.34;5064828;28;20357;-27
2022/10/20 01:25:33;;;;;;;;;;;;;;;5.97;68.48;101707.88;5061937;28;19919;-29
2022/10/20 01:28:03;;;;;;;;;;;;;;;5.95;68.01;101702.59;5066234;28;20273;-27
2022/10/20 01:30:29;;;;;;;;;;;;;;;5.94;68.18;101692.97;5043738;28;20033;-28
2022/10/20 01:32:57;;;;;;;;;;;;;;;5.94;68.33;101690.34;5066702;28;19916;-28
2022/10/20 01:35:22;;;;;;;;;;;;;;;5.93;68.37;101685.06;5055653;28;19921;-28
2022/10/20 01:37:51;;;;;;;;;;;;;;;5.90;68.23;101680.63;5071675;28;19957;-28
2022/10/20 01:40:28;;;;;;;;;;;;;;;5.87;67.81;101665.72;5052444;28;19912;-29
2022/10/20 01:42:53;;;;;;;;;;;;;;;5.86;68.00;101655.19;5050881;28;19912;-29
2022/10/20 01:45:19;;;;;;;;;;;;;;;5.83;68.09;101658.63;5052806;28;19935;-28
2022/10/20 01:47:44;;;;;;;;;;;;;;;5.81;68.18;101656.81;5052945;28;19917;-27
2022/10/20 01:50:10;;;;;;;;;;;;;;;5.80;67.72;101649.81;5048924;28;19935;-28
2022/10/20 01:52:35;;;;;;;;;;;;;;;5.78;67.82;101658.50;5061117;28;19928;-28
2022/10/20 01:55:00;;;;;;;;;;;;;;;5.77;68.00;101642.78;5059115;28;19912;-29
2022/10/20 01:57:58;;;;;;;;;;;;;;;5.76;68.02;101647.13;5063307;28;20384;-29
2022/10/20 02:00:23;;;;;;;;;;;;;;;5.73;67.69;101644.41;5042353;28;19913;-29
2022/10/20 02:03:04;;;;;;;;;;;;;;;5.70;67.80;101636.47;5052046;28;19912;-27
2022/10/20 02:05:32;;;;;;;;;;;;;;;5.71;67.52;101632.13;5063481;28;19977;-28
2022/10/20 02:08:09;;;;;;;;;;;;;;;5.69;67.99;101637.31;5069915;28;19920;-28
2022/10/20 02:10:39;;;;;;;;;;;;;;;5.67;67.59;101651.22;5058408;28;19916;-28
2022/10/20 02:13:04;;;;;;;;;;;;;;;5.64;68.05;101652.03;5065163;28;19952;-28
2022/10/20 02:15:30;;;;;;;;;;;;;;;5.61;67.90;101649.31;5051959;28;20008;-28
2022/10/20 02:17:58;;;;;;;;;;;;;;;5.59;67.93;101643.16;5053957;28;19916;-28
2022/10/20 02:20:23;;;;;;;;;;;;;;;5.57;68.41;101643.09;5059697;28;20312;-29
2022/10/20 02:22:48;;;;;;;;;;;;;;;5.55;68.44;101636.06;5067279;28;19928;-29
2022/10/20 02:25:13;;;;;;;;;;;;;;;5.54;68.24;101635.19;5045078;28;19919;-28
2022/10/20 02:27:40;;;;;;;;;;;;;;;5.53;67.98;101633.41;5054242;28;20277;-29
2022/10/20 02:30:09;;;;;;;;;;;;;;;5.51;68.47;101630.75;5041616;28;19974;-28
2022/10/20 02:32:35;;;;;;;;;;;;;;;5.49;68.10;101637.69;5064722;28;19923;-28
2022/10/20 02:35:09;;;;;;;;;;;;;;;5.47;67.55;101639.34;5046744;28;19912;-28
2022/10/20 02:37:34;;;;;;;;;;;;;;;5.46;68.29;101637.59;5065514;28;20395;-27
2022/10/20 02:39:59;;;;;;;;;;;;;;;5.45;68.49;101635.81;5070191;28;20007;-28
2022/10/20 02:42:24;;;;;;;;;;;;;;;5.46;67.52;101619.28;5056777;28;19940;-28
2022/10/20 02:44:50;;;;;;;;;;;;;;;5.42;68.08;101625.25;5061967;28;20333;-28
2022/10/20 02:47:15;;;;;;;;;;;;;;;5.39;67.77;101630.41;5063302;28;19919;-29
2022/10/20 02:49:40;;;;;;;;;;;;;;;5.39;68.33;101635.63;5042859;28;19912;-29
2022/10/20 02:52:06;;;;;;;;;;;;;;;5.37;68.06;101629.50;5056386;28;19916;-28
2022/10/20 02:54:31;;;;;;;;;;;;;;;5.35;67.94;101624.22;5066132;28;19961;-28
2022/10/20 02:56:56;;;;;;;;;;;;;;;5.37;68.27;101626.88;5073848;28;20021;-28
2022/10/20 02:59:21;;;;;;;;;;;;;;;5.33;68.09;101615.44;5060959;28;19913;-28
2022/10/20 03:01:47;;;;;;;;;;;;;;;5.33;68.13;101611.94;5062209;28;19917;-29
2022/10/20 03:04:12;;;;;;;;;;;;;;;5.32;67.60;101618.00;5065510;28;20003;-29
2022/10/20 03:06:38;;;;;;;;;;;;;;;5.31;67.52;101613.63;5057787;28;19912;-27
2022/10/20 03:09:04;;;;;;;;;;;;;;;5.27;68.11;101615.28;5045493;28;19930;-28
2022/10/20 03:11:30;;;;;;;;;;;;;;;5.25;68.27;101612.63;5059636;28;19916;-28
2022/10/20 03:13:55;;;;;;;;;;;;;;;5.23;68.02;101616.91;5046187;28;19918;-28
2022/10/20 03:16:20;;;;;;;;;;;;;;;5.21;67.75;101602.00;5063884;28;19924;-29
2022/10/20 03:18:46;;;;;;;;;;;;;;;5.17;67.47;101595.78;5063687;28;19974;-28
2022/10/20 03:21:11;;;;;;;;;;;;;;;5.18;67.50;101589.75;5066018;28;19920;-28
2022/10/20 03:23:36;;;;;;;;;;;;;;;5.16;67.85;101596.66;5066449;28;19908;-28
2022/10/20 03:26:02;;;;;;;;;;;;;;;5.13;67.92;101586.09;5061965;28;19919;-29
2022/10/20 03:28:27;;;;;;;;;;;;;;;5.11;67.77;101582.56;5063241;28;19947;-28
2022/10/20 03:30:52;;;;;;;;;;;;;;;5.11;67.88;101579.94;5068969;28;19920;-29
2022/10/20 03:33:18;;;;;;;;;;;;;;;5.10;68.30;101578.19;5059917;28;19929;-28
2022/10/20 03:35:43;;;;;;;;;;;;;;;5.09;68.16;101579.91;5068537;28;19931;-28
2022/10/20 03:38:08;;;;;;;;;;;;;;;5.07;67.90;101578.09;5058643;28;20029;-28
2022/10/20 03:40:33;;;;;;;;;;;;;;;5.05;68.14;101574.53;5065769;28;19924;-27
2022/10/20 03:42:59;;;;;;;;;;;;;;;5.04;67.95;101570.16;5062370;28;19915;-28
2022/10/20 03:45:24;;;;;;;;;;;;;;;5.01;68.26;101571.81;5062531;28;20143;-28
2022/10/20 03:47:49;;;;;;;;;;;;;;;5.02;68.11;101567.50;5067256;28;19912;-30
2022/10/20 03:50:14;;;;;;;;;;;;;;;5.03;67.78;101565.78;5059492;28;19919;-31
2022/10/20 03:52:40;;;;;;;;;;;;;;;5.00;67.76;101554.38;5061956;28;19912;-28
2022/10/20 03:55:05;;;;;;;;;;;;;;;4.98;68.01;101553.47;5059138;28;19966;-28
2022/10/20 03:57:30;;;;;;;;;;;;;;;4.97;68.25;101554.28;5061738;28;19963;-28
2022/10/20 03:59:55;;;;;;;;;;;;;;;4.99;68.24;101551.72;5054289;28;19908;-28
2022/10/20 04:02:30;;;;;;;;;;;;;;;4.98;67.80;101545.63;5070858;28;19916;-28
2022/10/20 04:04:56;;;;;;;;;;;;;;;4.98;67.82;101558.69;5069712;28;20365;-28
2022/10/20 04:07:21;;;;;;;;;;;;;;;4.97;68.18;101558.66;5058778;28;19920;-28
2022/10/20 04:09:46;;;;;;;;;;;;;;;4.96;68.31;101551.63;5059743;28;19920;-28
2022/10/20 04:12:11;;;;;;;;;;;;;;;4.94;67.86;101543.72;5067247;28;19920;-28
2022/10/20 04:14:37;;;;;;;;;;;;;;;4.90;68.09;101531.41;5063505;28;19920;-29
2022/10/20 04:17:02;;;;;;;;;;;;;;;4.90;68.40;101528.81;5055993;28;19912;-29
2022/10/20 04:19:27;;;;;;;;;;;;;;;4.91;67.81;101522.75;5056338;28;19912;-28
2022/10/20 04:21:52;;;;;;;;;;;;;;;4.89;68.05;101521.81;5063194;28;19912;-29
2022/10/20 04:24:17;;;;;;;;;;;;;;;4.88;68.07;101530.50;5068125;28;19919;-28
2022/10/20 04:26:43;;;;;;;;;;;;;;;4.88;68.26;101533.97;5065224;28;19913;-29
2022/10/20 04:29:08;;;;;;;;;;;;;;;4.86;67.47;101526.94;5058394;28;19920;-28
2022/10/20 04:31:33;;;;;;;;;;;;;;;4.84;67.64;101523.41;5065959;28;19916;-29
2022/10/20 04:33:58;;;;;;;;;;;;;;;4.81;68.04;101520.72;5063830;28;19912;-28
2022/10/20 04:36:24;;;;;;;;;;;;;;;4.78;67.74;101521.53;5064055;28;19927;-29
2022/10/20 04:38:49;;;;;;;;;;;;;;;4.79;67.37;101517.16;5066561;28;19921;-28
2022/10/20 04:41:14;;;;;;;;;;;;;;;4.80;67.55;101521.56;5061468;28;19939;-30
2022/10/20 04:43:39;;;;;;;;;;;;;;;4.76;67.65;101520.56;5042645;28;19909;-28
2022/10/20 04:46:04;;;;;;;;;;;;;;;4.74;67.50;101517.06;5061263;28;19962;-28
2022/10/20 04:48:30;;;;;;;;;;;;;;;4.76;67.43;101515.34;5047444;28;20323;-30
2022/10/20 04:50:59;;;;;;;;;;;;;;;4.72;68.16;101506.56;5057264;28;20358;-28
2022/10/20 04:53:24;;;;;;;;;;;;;;;4.71;68.06;101512.59;5064946;28;19922;-28
2022/10/20 04:55:53;;;;;;;;;;;;;;;4.69;67.73;101505.56;5067339;28;19916;-28
2022/10/20 04:58:18;;;;;;;;;;;;;;;4.69;68.09;101498.63;5063898;28;19920;-30
2022/10/20 05:00:43;;;;;;;;;;;;;;;4.68;68.03;101494.25;5051113;28;19917;-28
2022/10/20 05:03:08;;;;;;;;;;;;;;;4.66;67.94;101485.47;5068398;28;19923;-28
2022/10/20 05:05:34;;;;;;;;;;;;;;;4.65;68.38;101488.91;5061548;28;19916;-28
2022/10/20 05:07:59;;;;;;;;;;;;;;;4.66;68.21;101488.06;5059707;28;19913;-28
2022/10/20 05:10:24;;;;;;;;;;;;;;;4.64;68.33;101476.69;5047256;28;19923;-29
2022/10/20 05:12:49;;;;;;;;;;;;;;;4.64;68.25;101481.03;5056845;28;19913;-28
2022/10/20 05:15:14;;;;;;;;;;;;;;;4.64;68.23;101476.69;5064673;28;19916;-28
2022/10/20 05:17:40;;;;;;;;;;;;;;;4.62;67.78;101460.09;5069800;28;20003;-27
2022/10/20 05:20:05;;;;;;;;;;;;;;;4.63;67.63;101464.47;5054842;28;19913;-28
2022/10/20 05:22:30;;;;;;;;;;;;;;;4.62;67.65;101460.09;5052002;28;19908;-28
2022/10/20 05:24:55;;;;;;;;;;;;;;;4.60;68.09;101459.13;5059894;28;20151;-28
2022/10/20 05:27:21;;;;;;;;;;;;;;;4.59;67.77;101462.59;5063801;28;19940;-29
2022/10/20 05:29:46;;;;;;;;;;;;;;;4.59;68.34;101462.59;5071074;28;19952;-28
2022/10/20 05:32:11;;;;;;;;;;;;;;;4.57;68.16;101459.06;5070810;28;19952;-28
2022/10/20 05:34:37;;;;;;;;;;;;;;;4.55;67.74;101458.13;5069586;28;19988;-28
2022/10/20 05:37:03;;;;;;;;;;;;;;;4.54;68.27;101458.97;5071342;28;19916;-28
2022/10/20 05:39:28;;;;;;;;;;;;;;;4.54;68.39;101467.72;5067858;28;20298;-27
2022/10/20 05:41:53;;;;;;;;;;;;;;;4.56;68.35;101475.56;5063386;28;19908;-28
2022/10/20 05:44:18;;;;;;;;;;;;;;;4.55;68.05;101472.09;5070188;28;20373;-28
2022/10/20 05:46:44;;;;;;;;;;;;;;;4.55;67.93;101476.41;5072289;28;20292;-28
2022/10/20 05:49:14;;;;;;;;;;;;;;;4.54;67.63;101472.03;5075401;28;20156;-28
2022/10/20 05:51:39;;;;;;;;;;;;;;;4.51;68.10;101464.13;5075690;28;19908;-28
2022/10/20 05:54:04;;;;;;;;;;;;;;;4.46;68.16;101472.72;5065983;28;19912;-28
2022/10/20 05:56:30;;;;;;;;;;;;;;;4.46;68.33;101472.72;5067746;28;20207;-28
2022/10/20 05:58:55;;;;;;;;;;;;;;;4.47;68.45;101474.47;5075653;28;19987;-28
2022/10/20 06:01:37;;;;;;;;;;;;;;;4.46;67.75;101471.81;5072808;28;19952;-27
2022/10/20 06:04:03;;;;;;;;;;;;;;;4.44;68.55;101470.91;5055630;28;19919;-28
2022/10/20 06:06:29;;;;;;;;;;;;;;;4.42;67.96;101459.50;5055678;28;19909;-28
2022/10/20 06:08:54;;;;;;;;;;;;;;;4.40;68.31;101466.44;5048199;28;19916;-28
2022/10/20 06:11:20;;;;;;;;;;;;;;;4.40;68.21;101466.44;5063135;28;19915;-28
2022/10/20 06:13:45;;;;;;;;;;;;;;;4.41;68.53;101469.09;5054922;28;19952;-29
2022/10/20 06:16:14;;;;;;;;;;;;;;;4.42;68.55;101459.50;5055338;28;19955;-29
2022/10/20 06:18:41;;;;;;;;;;;;;;;4.43;68.40;101462.16;5054916;28;19921;-28
2022/10/20 06:21:17;;;;;;;;;;;;;;;4.41;68.64;101463.88;5073817;28;19912;-29
2022/10/20 06:23:42;;;;;;;;;;;;;;;4.42;68.55;101464.72;5068132;28;19916;-27
2022/10/20 06:26:09;;;;;;;;;;;;;;;4.42;68.39;101465.63;5071067;28;19991;-29
2022/10/20 06:28:35;;;;;;;;;;;;;;;4.41;68.23;101469.09;5066832;28;19917;-28
2022/10/20 06:31:02;;;;;;;;;;;;;;;4.38;68.96;101462.88;5060226;28;19913;-29
2022/10/20 06:33:28;;;;;;;;;;;;;;;4.39;68.18;101462.91;5036150;28;19914;-31
2022/10/20 06:35:57;;;;;;;;;;;;;;;4.40;68.79;101469.91;5037142;28;20285;-31
2022/10/20 06:38:22;;;;;;;;;;;;;;;4.41;68.41;101460.34;5055141;28;19948;-30
2022/10/20 06:40:47;;;;;;;;;;;;;;;4.42;69.09;101459.50;5056034;28;19963;-31
2022/10/20 06:43:13;;;;;;;;;;;;;;;4.43;69.00;101458.69;5054794;28;20290;-28
2022/10/20 06:45:38;;;;;;;;;;;;;;;4.44;68.90;101469.16;5062571;28;19916;-28
2022/10/20 06:48:03;;;;;;;;;;;;;;;4.45;68.65;101465.72;5054845;28;19919;-29
2022/10/20 06:50:29;;;;;;;;;;;;;;;4.44;68.96;101463.94;5054284;28;19915;-28
2022/10/20 06:52:54;;;;;;;;;;;;;;;4.48;69.29;101463.19;5054722;28;19970;-27
2022/10/20 06:55:19;;;;;;;;;;;;;;;4.55;68.77;101460.75;5054249;28;19959;-29
2022/10/20 06:57:45;;;;;;;;;;;;;;;4.58;68.51;101466.06;5055209;28;20320;-28
2022/10/20 07:00:10;;;;;;;;;;;;;;;4.60;68.62;101470.50;5066428;28;19946;-28
2022/10/20 07:02:37;;;;;;;;;;;;;;;4.65;68.79;101461.88;5074150;28;20067;-28
2022/10/20 07:05:02;;;;;;;;;;;;;;;4.69;69.40;101453.28;5074125;28;19912;-28
2022/10/20 07:07:27;;;;;;;;;;;;;;;4.71;68.81;101452.47;5072691;28;20146;-27
2022/10/20 07:09:53;;;;;;;;;;;;;;;4.75;69.24;101456.09;5056118;28;19931;-29
2022/10/20 07:12:18;;;;;;;;;;;;;;;4.78;69.62;101457.91;5070312;28;19912;-27
2022/10/20 07:14:43;;;;;;;;;;;;;;;4.80;69.65;101451.84;5060015;28;20365;-28
2022/10/20 07:17:09;;;;;;;;;;;;;;;4.83;69.71;101457.19;5050591;28;19916;-28
2022/10/20 07:19:34;;;;;;;;;;;;;;;4.87;70.27;101453.81;5061302;28;20285;-28
2022/10/20 07:21:59;;;;;;;;;;;;;;;4.90;69.93;101431.22;5064607;28;19912;-29
2022/10/20 07:24:25;;;;;;;;;;;;;;;4.93;69.98;101436.53;5073442;28;19915;-28
2022/10/20 07:26:50;;;;;;;;;;;;;;;4.97;70.14;101444.47;5071563;28;19923;-27
2022/10/20 07:29:15;;;;;;;;;;;;;;;5.01;69.97;101448.94;5065660;28;19908;-29
2022/10/20 07:31:42;;;;;;;;;;;;;;;5.06;70.35;101438.59;5073367;28;19999;-28
2022/10/20 07:34:08;;;;;;;;;;;;;;;5.09;70.12;101433.47;5072864;28;20003;-29
2022/10/20 07:36:34;;;;;;;;;;;;;;;5.13;70.63;101434.41;5073940;28;19919;-28
2022/10/20 07:39:00;;;;;;;;;;;;;;;5.17;70.51;101436.25;5073684;28;19909;-28
2022/10/20 07:41:25;;;;;;;;;;;;;;;5.22;69.96;101439.00;5065963;28;19912;-28
2022/10/20 07:43:51;;;;;;;;;;;;;;;5.25;70.31;101439.97;5060528;28;19991;-29
2022/10/20 07:46:16;;;;;;;;;;;;;;;5.32;69.94;101447.97;5055477;28;19908;-28
2022/10/20 07:48:42;;;;;;;;;;;;;;;5.34;69.59;101438.44;5071977;28;19913;-29
2022/10/20 07:51:16;;;;;;;;;;;;;;;5.42;69.86;101426.41;5073492;28;19955;-28
2022/10/20 07:53:41;;;;;;;;;;;;;;;5.47;69.86;101419.56;5078229;28;19912;-28
2022/10/20 07:56:07;;;;;;;;;;;;;;;5.52;69.45;101417.06;5073231;28;19923;-28
2022/10/20 07:58:32;;;;;;;;;;;;;;;5.57;69.35;101417.19;5059562;28;19923;-29
2022/10/20 08:00:57;;;;;;;;;;;;;;;5.62;69.16;101420.78;5068231;28;20284;-28
2022/10/20 08:03:23;;;;;;;;;;;;;;;5.67;69.24;101429.59;5073328;28;19908;-28
2022/10/20 08:05:48;;;;;;;;;;;;;;;5.72;69.13;101432.34;5068459;28;19912;-29
2022/10/20 08:08:13;;;;;;;;;;;;;;;5.76;69.11;101424.59;5067806;28;19919;-29
2022/10/20 08:10:39;;;;;;;;;;;;;;;5.82;69.28;101430.81;5056135;28;20332;-28
2022/10/20 08:13:04;;;;;;;;;;;;;;;5.85;69.48;101421.31;5071893;28;19963;-28
2022/10/20 08:15:29;;;;;;;;;;;;;;;5.90;68.72;101418.78;5072493;28;20391;-28
2022/10/20 08:17:55;;;;;;;;;;;;;;;5.95;68.84;101411.03;5073211;28;19920;-29
2022/10/20 08:20:20;;;;;;;;;;;;;;;6.00;68.75;101401.56;5053737;28;19917;-28
2022/10/20 08:22:46;;;;;;;;;;;;;;;6.03;68.40;101399.91;5065085;28;19912;-28
2022/10/20 08:25:12;;;;;;;;;;;;;;;6.07;68.73;101397.38;5054434;28;19916;-29
2022/10/20 08:27:38;;;;;;;;;;;;;;;6.13;68.99;101394.84;5052968;28;20333;-28
2022/10/20 08:30:03;;;;;;;;;;;;;;;6.18;68.89;101398.47;5066441;28;20427;-28
2022/10/20 08:32:29;;;;;;;;;;;;;;;6.26;68.71;101396.91;5072407;28;20296;-28
2022/10/20 08:34:54;;;;;;;;;;;;;;;6.35;68.48;101397.94;5071448;28;20345;-28
2022/10/20 08:37:19;;;;;;;;;;;;;;;6.44;68.43;101397.22;5067597;28;19916;-28
2022/10/20 08:39:45;;;;;;;;;;;;;;;6.51;68.68;101386.88;5064709;28;20404;-28
2022/10/20 08:42:10;;;;;;;;;;;;;;;6.61;68.68;101387.06;5063109;28;20242;-30
2022/10/20 08:44:36;;;;;;;;;;;;;;;6.70;68.47;101387.22;5037815;28;19921;-29
2022/10/20 08:47:02;;;;;;;;;;;;;;;6.78;68.86;101380.41;5069441;28;20100;-30
2022/10/20 08:49:30;;;;;;;;;;;;;;;6.87;68.57;101370.94;5072097;28;19912;-29
2022/10/20 08:51:55;;;;;;;;;;;;;;;6.96;68.71;101365.84;5071272;28;19916;-30
2022/10/20 08:54:20;;;;;;;;;;;;;;;7.05;68.81;101371.25;5056478;28;19920;-30
2022/10/20 08:56:46;;;;;;;;;;;;;;;7.12;68.77;101358.22;5054401;28;19919;-28
2022/10/20 08:59:40;;;;;;;;;;;;;;;7.20;69.30;101356.59;5072480;28;19908;-28
2022/10/20 09:02:12;;;;;;;;;;;;;;;7.30;68.72;101358.53;5050302;28;19916;-28
2022/10/20 09:04:38;;;;;;;;;;;;;;;7.37;69.13;101356.00;5039074;28;19912;-30
2022/10/20 09:07:07;;;;;;;;;;;;;;;7.46;68.94;101364.00;5054144;28;19918;-30
2022/10/20 09:09:33;;;;;;;;;;;;;;;7.53;69.13;101351.84;5044164;28;20444;-29
2022/10/20 09:12:05;;;;;;;;;;;;;;;7.60;69.57;101353.69;5052638;28;19912;-28
2022/10/20 09:14:33;;;;;;;;;;;;;;;7.70;70.17;101352.06;5036875;28;19991;-31
2022/10/20 09:16:59;;;;;;;;;;;;;;;7.78;70.04;101342.59;5053246;28;19919;-28
2022/10/20 09:19:24;;;;;;;;;;;;;;;7.88;70.07;101345.31;5053351;28;19916;-28
2022/10/20 09:21:56;;;;;;;;;;;;;;;7.96;70.25;101341.03;5053225;28;19927;-28
2022/10/20 09:24:21;;;;;;;;;;;;;;;8.05;70.60;101335.91;5056800;28;19920;-30
2022/10/20 09:26:48;;;;;;;;;;;;;;;8.15;70.34;101328.13;5067938;28;19994;-29
2022/10/20 09:29:17;;;;;;;;;;;;;;;8.25;70.25;101323.84;5073391;28;19934;-29
2022/10/20 09:31:44;;;;;;;;;;;;;;;8.33;70.33;101320.44;5055052;28;19915;-29
2022/10/20 09:34:26;;;;;;;;;;;;;;;8.41;70.25;101314.41;5071702;28;19916;-28
2022/10/20 09:36:52;;;;;;;;;;;;;;;8.50;70.09;101313.63;5072258;28;19912;-30
2022/10/20 09:39:19;;;;;;;;;;;;;;;8.59;70.21;101319.88;5063414;28;19913;-29
2022/10/20 09:41:45;;;;;;;;;;;;;;;8.67;70.23;101312.03;5064367;28;20365;-28
2022/10/20 09:44:14;;;;;;;;;;;;;;;8.78;69.90;101319.16;5053896;28;19915;-29
2022/10/20 09:46:43;;;;;;;;;;;;;;;8.85;69.92;101311.34;5073016;28;19937;-28
2022/10/20 09:49:20;;;;;;;;;;;;;;;8.95;69.91;101309.66;5072883;28;19909;-28
2022/10/20 09:51:46;;;;;;;;;;;;;;;9.07;70.06;101318.53;5053812;28;19966;-29
2022/10/20 09:54:15;;;;;;;;;;;;;;;9.17;69.65;101312.44;5061056;28;19920;-30
2022/10/20 09:56:40;;;;;;;;;;;;;;;9.26;69.85;101306.34;5035670;28;19916;-28
2022/10/20 09:59:26;;;;;;;;;;;;;;;9.34;69.83;101298.53;5059262;28;19916;-28
2022/10/20 10:01:52;;;;;;;;;;;;;;;9.45;69.93;101286.31;5067483;28;19958;-28
2022/10/20 10:04:36;;;;;;;;;;;;;;;9.54;69.51;101293.34;5045009;28;19912;-28
2022/10/20 10:07:02;;;;;;;;;;;;;;;9.61;69.55;101284.59;5052474;28;19909;-29
2022/10/20 10:09:35;;;;;;;;;;;;;;;9.69;69.61;101281.13;5055255;28;19916;-30
2022/10/20 10:12:00;;;;;;;;;;;;;;;9.76;69.49;101282.91;5044445;28;20289;-30
2022/10/20 10:14:26;;;;;;;;;;;;;;;9.83;69.41;101275.91;5053471;28;19917;-28
2022/10/20 10:16:52;;;;;;;;;;;;;;;9.93;69.58;101274.19;5052286;28;19912;-28
2022/10/20 10:19:18;;;;;;;;;;;;;;;10.00;69.47;101270.69;5056391;28;20016;-28
2022/10/20 10:21:44;;;;;;;;;;;;;;;10.07;69.72;101274.25;5053984;28;19948;-30
2022/10/20 10:24:27;;;;;;;;;;;;;;;10.15;69.56;101277.78;5071937;28;19909;-28
2022/10/20 10:26:53;;;;;;;;;;;;;;;10.23;69.52;101275.16;5053826;28;20392;-30
2022/10/20 10:29:22;;;;;;;;;;;;;;;10.33;69.55;101265.50;5060401;28;19913;-30
2022/10/20 10:31:55;;;;;;;;;;;;;;;10.44;69.76;101278.72;5059606;28;20163;-30
2022/10/20 10:34:30;;;;;;;;;;;;;;;10.51;69.65;101269.97;5073009;28;19930;-30
2022/10/20 10:36:56;;;;;;;;;;;;;;;10.61;69.94;101266.44;5057732;28;20377;-30
2022/10/20 10:39:21;;;;;;;;;;;;;;;10.67;69.56;101251.50;5053553;28;19917;-28
2022/10/20 10:42:05;;;;;;;;;;;;;;;10.73;69.11;101251.47;5057461;28;19966;-28
2022/10/20 10:44:31;;;;;;;;;;;;;;;10.83;69.30;101244.44;5067253;28;20023;-28
2022/10/20 10:46:56;;;;;;;;;;;;;;;10.89;69.35;101233.88;5055511;28;20463;-29
2022/10/20 10:49:25;;;;;;;;;;;;;;;10.97;69.23;101234.75;5056844;28;19908;-29
2022/10/20 10:52:08;;;;;;;;;;;;;;;11.03;69.56;101216.25;5073473;28;19919;-29
2022/10/20 10:54:34;;;;;;;;;;;;;;;11.12;69.41;101217.13;5074965;28;19908;-30
2022/10/20 10:57:01;;;;;;;;;;;;;;;11.21;69.15;101208.31;5064640;28;20301;-30
2022/10/20 10:59:36;;;;;;;;;;;;;;;11.28;69.17;101204.75;5036599;28;20011;-29
2022/10/20 11:02:04;;;;;;;;;;;;;;;11.36;69.05;101196.78;5036838;28;19913;-30
2022/10/20 11:04:48;;;;;;;;;;;;;;;11.43;68.72;101195.88;5065050;28;19912;-30
2022/10/20 11:07:32;;;;;;;;;;;;;;;11.50;69.23;101197.63;5074283;28;19917;-29
2022/10/20 11:10:16;;;;;;;;;;;;;;;11.59;69.09;101207.28;5068722;28;19908;-30
2022/10/20 11:12:53;;;;;;;;;;;;;;;11.66;68.98;101197.53;5062155;28;19935;-30
2022/10/20 11:15:37;;;;;;;;;;;;;;;11.74;68.94;101205.44;5054256;28;19966;-30
2022/10/20 11:18:02;;;;;;;;;;;;;;;11.84;69.02;101203.63;5036023;28;20278;-30
2022/10/20 11:20:27;;;;;;;;;;;;;;;11.90;69.31;101193.88;5068503;28;19916;-30
2022/10/20 11:23:11;;;;;;;;;;;;;;;11.99;69.33;101186.78;5056120;28;19938;-30
2022/10/20 11:25:46;;;;;;;;;;;;;;;12.05;69.04;101176.16;5068091;28;19909;-30
2022/10/20 11:28:31;;;;;;;;;;;;;;;12.12;69.13;101177.91;5063900;28;19913;-30
2022/10/20 11:30:57;;;;;;;;;;;;;;;12.20;68.93;101180.47;5055715;28;20468;-28
2022/10/20 11:33:23;;;;;;;;;;;;;;;12.27;69.03;101166.31;5053719;28;19999;-29
2022/10/20 11:35:51;;;;;;;;;;;;;;;12.33;69.05;101154.81;5060494;28;19908;-29
2022/10/20 11:38:16;;;;;;;;;;;;;;;12.39;68.88;101149.50;5055882;28;19916;-29
2022/10/20 11:40:42;;;;;;;;;;;;;;;12.44;68.84;101145.00;5063699;28;20007;-29
2022/10/20 11:43:11;;;;;;;;;;;;;;;12.53;68.91;101135.22;5036564;28;19932;-28
2022/10/20 11:45:52;;;;;;;;;;;;;;;12.58;68.68;101128.16;5053409;28;20672;-29
2022/10/20 11:48:35;;;;;;;;;;;;;;;12.65;68.66;101119.25;5053946;28;19908;-28
2022/10/20 11:51:19;;;;;;;;;;;;;;;12.72;68.62;101116.53;5045449;28;19909;-30
2022/10/20 11:53:51;;;;;;;;;;;;;;;12.79;68.29;101110.28;5053529;28;19913;-30
2022/10/20 11:56:36;;;;;;;;;;;;;;;12.85;68.57;101104.03;5056000;28;20397;-30
2022/10/20 11:59:07;;;;;;;;;;;;;;;12.92;68.28;101111.00;5053214;28;19917;-30
2022/10/20 12:01:51;;;;;;;7.03;3.80;;;;;;;12.98;68.11;101116.25;5073481;22;20247;-34
2022/10/20 12:04:16;;;;;;;;;;;;;;;13.06;68.06;101102.88;5063568;28;20037;-33
2022/10/20 12:06:44;;;;;;;;;;;;;;;13.11;67.79;101095.78;5073433;28;19908;-32
2022/10/20 12:09:28;;;;;;;;;;;;;;;13.17;67.88;101094.81;5060786;28;20305;-34
2022/10/20 12:11:56;;;;;;;;;;;;;;;13.23;68.12;101092.06;5077484;28;20064;-32
2022/10/20 12:14:24;;;;;;;;;;;;;;;13.29;67.67;101084.06;5052052;28;19916;-33
2022/10/20 12:16:53;;;;;;;;;;;;;;;13.36;67.78;101079.53;5053231;28;20351;-34
2022/10/20 12:19:22;;;;;;;;;;;;;;;13.41;67.58;101069.75;5053108;28;20069;-32
2022/10/20 12:22:03;;;;;;;;;;;;;;;13.49;67.51;101074.09;5053116;28;19909;-34
2022/10/20 12:24:43;;;;;;;;;;;;;;;13.55;67.73;101076.66;5043218;28;20329;-33
2022/10/20 12:27:09;;;;;;;;;;;;;;;13.62;67.49;101059.78;5050669;28;19920;-32
2022/10/20 12:29:34;;;;;;;;;;;;;;;13.69;67.50;101060.53;5051709;28;19909;-33
2022/10/20 12:32:24;;;;;;;;;;;;;;;13.78;67.46;101062.16;5052451;28;20365;-33
2022/10/20 12:34:53;;;;;;;;;;;;;;;13.83;67.41;101063.84;5052735;28;20323;-32
2022/10/20 12:37:23;;;;;;;;;;;;;;;13.90;67.46;101064.59;5049507;28;20491;-32
2022/10/20 12:39:48;;;;;;;;;;;;;;;13.98;67.15;101052.09;5050528;28;19923;-33
2022/10/20 12:42:26;;;;;;;;;;;;;;;14.04;66.98;101050.25;5047549;28;19913;-33
2022/10/20 12:44:52;;;;;;;;;;;;;;;14.09;66.91;101051.94;5032722;28;20369;-33
2022/10/20 12:47:18;;;;;;;;;;;;;;;14.18;67.10;101058.84;5031494;28;19999;-33